createdAt,value
2018-11-05T00:01:42.367Z,73.87
2018-11-05T00:04:13.812Z,67.27
2018-11-05T00:06:45.581Z,73.10
2018-11-05T00:09:17.051Z,66.70
2018-11-05T00:12:01.236Z,64.73
2018-11-05T00:14:33.036Z,71.37
2018-11-05T00:17:05.064Z,59.30
2018-11-05T00:19:36.662Z,68.70
2018-11-05T00:22:09.519Z,76.63
2018-11-05T00:24:40.815Z,73.67
2018-11-05T00:27:12.347Z,76.97
2018-11-05T00:29:43.712Z,70.17
2018-11-05T00:32:15.301Z,76.73
2018-11-05T00:34:47.045Z,71.13
2018-11-05T00:37:19.016Z,78.53
2018-11-05T00:39:51.014Z,58.20
2018-11-05T00:42:22.320Z,58.93
2018-11-05T00:44:54.087Z,61.13
2018-11-05T00:47:26.663Z,70.30
2018-11-05T00:49:58.563Z,65.70
2018-11-05T00:52:31.294Z,75.87
2018-11-05T00:55:04.858Z,79.50
2018-11-05T00:57:36.452Z,68.77
2018-11-05T01:00:10.544Z,67.10
2018-11-05T01:02:41.993Z,69.17
2018-11-05T01:05:16.268Z,74.37
2018-11-05T01:07:47.953Z,69.07
2018-11-05T01:10:19.711Z,68.27
2018-11-05T01:12:51.864Z,74.67
2018-11-05T01:15:23.343Z,81.00
2018-11-05T01:17:54.792Z,77.17
2018-11-05T01:20:26.424Z,74.13
2018-11-05T01:22:57.931Z,59.00
2018-11-05T01:25:29.978Z,64.47
2018-11-05T01:28:01.017Z,80.47
2018-11-05T01:30:32.886Z,66.53
2018-11-05T01:33:04.011Z,75.77
2018-11-05T01:35:35.360Z,77.43
2018-11-05T01:38:07.329Z,62.97
2018-11-05T01:40:39.395Z,83.30
2018-11-05T01:43:10.944Z,68.23
2018-11-05T01:45:42.374Z,56.13
2018-11-05T01:48:13.514Z,74.07
2018-11-05T01:50:45.619Z,78.13
2018-11-05T01:53:17.767Z,64.57
2018-11-05T01:55:48.950Z,69.40
2018-11-05T01:58:20.648Z,75.30
2018-11-05T02:00:51.858Z,71.10
2018-11-05T02:03:23.534Z,60.30
2018-11-05T02:05:55.990Z,69.67
2018-11-05T02:08:27.822Z,68.40
2018-11-05T02:10:59.666Z,67.73
2018-11-05T02:13:31.059Z,79.17
2018-11-05T02:16:02.606Z,70.10
2018-11-05T02:18:34.687Z,78.93
2018-11-05T02:21:06.128Z,57.10
2018-11-05T02:23:38.633Z,70.87
2018-11-05T02:26:10.203Z,62.40
2018-11-05T02:28:41.782Z,64.50
2018-11-05T02:31:12.924Z,69.03
2018-11-05T02:33:44.413Z,68.50
2018-11-05T02:36:16.304Z,52.37
2018-11-05T02:38:47.602Z,63.77
2018-11-05T02:41:19.165Z,68.37
2018-11-05T02:43:50.502Z,71.83
2018-11-05T02:46:22.169Z,58.60
2018-11-05T02:48:54.099Z,60.50
2018-11-05T02:51:25.910Z,62.53
2018-11-05T02:53:58.058Z,71.63
2018-11-05T02:56:29.914Z,62.77
2018-11-05T02:59:01.076Z,69.73
2018-11-05T03:01:32.731Z,58.13
2018-11-05T03:04:04.160Z,65.87
2018-11-05T03:06:35.841Z,60.10
2018-11-05T03:09:10.631Z,63.37
2018-11-05T03:11:43.133Z,74.07
2018-11-05T03:14:14.592Z,59.37
2018-11-05T03:16:45.549Z,66.60
2018-11-05T03:19:16.731Z,70.17
2018-11-05T03:21:47.847Z,68.07
2018-11-05T03:24:18.905Z,67.67
2018-11-05T03:26:53.373Z,63.90
2018-11-05T03:29:25.200Z,61.97
2018-11-05T03:31:57.175Z,58.50
2018-11-05T03:34:29.010Z,56.17
2018-11-05T03:37:01.117Z,65.47
2018-11-05T03:39:34.426Z,65.93
2018-11-05T03:42:07.464Z,61.83
2018-11-05T03:44:38.932Z,64.47
2018-11-05T03:47:10.143Z,57.63
2018-11-05T03:49:42.327Z,62.80
2018-11-05T03:52:13.529Z,58.10
2018-11-05T03:54:47.957Z,68.30
2018-11-05T03:57:19.514Z,65.30
2018-11-05T03:59:51.874Z,76.77
2018-11-05T04:02:23.640Z,75.03
2018-11-05T04:04:55.216Z,68.63
2018-11-05T04:07:27.711Z,68.17
2018-11-05T04:09:59.253Z,73.90
2018-11-05T04:12:32.073Z,70.03
2018-11-05T04:15:03.940Z,70.53
2018-11-05T04:17:35.837Z,74.80
2018-11-05T04:20:09.042Z,62.53
2018-11-05T04:22:40.809Z,68.30
2018-11-05T04:25:12.427Z,61.40
2018-11-05T04:27:43.932Z,66.70
2018-11-05T04:30:16.619Z,56.83
2018-11-05T04:32:48.532Z,69.03
2018-11-05T04:35:20.120Z,57.23
2018-11-05T04:37:51.780Z,65.57
2018-11-05T04:40:23.756Z,64.87
2018-11-05T04:42:55.212Z,63.00
2018-11-05T04:45:28.173Z,62.70
2018-11-05T04:48:00.775Z,54.90
2018-11-05T04:50:32.068Z,71.07
2018-11-05T04:53:03.896Z,68.57
2018-11-05T04:55:35.686Z,67.87
2018-11-05T04:58:07.376Z,75.40
2018-11-05T05:00:39.483Z,59.13
2018-11-05T05:03:11.222Z,55.50
2018-11-05T05:05:43.194Z,65.73
2018-11-05T05:08:14.541Z,55.73
2018-11-05T05:10:46.389Z,60.20
2018-11-05T05:13:17.974Z,53.63
2018-11-05T05:15:50.627Z,60.57
2018-11-05T05:18:22.122Z,67.47
2018-11-05T05:20:54.214Z,60.23
2018-11-05T05:23:25.989Z,60.00
2018-11-05T05:25:57.281Z,47.57
2018-11-05T05:28:29.095Z,55.00
2018-11-05T05:31:00.813Z,62.30
2018-11-05T05:33:33.132Z,62.33
2018-11-05T05:36:05.267Z,49.50
2018-11-05T05:38:35.780Z,59.70
2018-11-05T05:41:06.272Z,58.50
2018-11-05T05:43:36.545Z,73.63
2018-11-05T05:46:06.930Z,60.13
2018-11-05T05:48:36.790Z,60.07
2018-11-05T05:51:08.845Z,58.63
2018-11-05T05:53:39.084Z,58.47
2018-11-05T05:56:09.621Z,68.37
2018-11-05T05:58:39.675Z,60.60
2018-11-05T06:01:09.966Z,64.93
2018-11-05T06:03:41.318Z,58.73
2018-11-05T06:06:11.705Z,67.93
2018-11-05T06:08:45.210Z,57.20
2018-11-05T06:11:15.633Z,69.53
2018-11-05T06:13:46.747Z,60.53
2018-11-05T06:16:17.110Z,67.57
2018-11-05T06:18:47.835Z,64.77
2018-11-05T06:21:17.966Z,70.97
2018-11-05T06:23:48.036Z,64.47
2018-11-05T06:26:17.925Z,64.47
2018-11-05T06:28:48.187Z,69.17
2018-11-05T06:31:18.936Z,59.17
2018-11-05T06:33:49.257Z,55.57
2018-11-05T06:36:19.741Z,79.70
2018-11-05T06:38:50.720Z,75.50
2018-11-05T06:41:20.808Z,76.00
2018-11-05T06:43:52.224Z,72.43
2018-11-05T06:46:22.642Z,74.70
2018-11-05T06:48:53.847Z,68.13
2018-11-05T06:51:24.240Z,72.13
2018-11-05T06:53:54.631Z,71.53
2018-11-05T06:56:28.897Z,74.70
2018-11-05T06:58:59.428Z,71.77
2018-11-05T07:01:30.802Z,96.67
2018-11-05T07:04:01.507Z,79.37
2018-11-05T07:06:31.358Z,83.13
2018-11-05T07:09:02.033Z,89.67
2018-11-05T07:11:33.785Z,76.77
2018-11-05T07:14:03.905Z,72.23
2018-11-05T07:16:38.093Z,69.13
2018-11-05T07:19:08.506Z,70.90
2018-11-05T07:21:40.607Z,63.83
2018-11-05T07:24:11.800Z,73.10
2018-11-05T07:26:43.567Z,58.37
2018-11-05T07:29:13.592Z,52.83
2018-11-05T07:31:43.926Z,54.13
2018-11-05T07:34:14.340Z,52.23
2018-11-05T07:36:44.828Z,50.80
2018-11-05T07:39:14.739Z,44.43
2018-11-05T07:41:44.538Z,46.70
2018-11-05T07:44:14.482Z,43.47
2018-11-05T07:46:44.539Z,46.73
2018-11-05T07:49:14.744Z,44.30
2018-11-05T07:51:46.080Z,44.47
2018-11-05T07:54:17.221Z,39.50
2018-11-05T07:56:48.603Z,37.07
2018-11-05T07:59:18.723Z,43.77
2018-11-05T08:01:49.485Z,46.93
2018-11-05T08:04:19.442Z,39.13
2018-11-05T08:06:49.876Z,39.63
2018-11-05T08:09:22.095Z,39.80
2018-11-05T08:11:52.277Z,34.97
2018-11-05T08:14:22.634Z,31.27
2018-11-05T08:16:53.095Z,27.37
2018-11-05T08:19:23.191Z,28.33
2018-11-05T08:21:53.432Z,30.17
2018-11-05T08:24:23.891Z,30.73
2018-11-05T08:26:54.156Z,29.43
2018-11-05T08:29:24.459Z,34.20
2018-11-05T08:31:54.723Z,29.23
2018-11-05T08:34:24.843Z,32.47
2018-11-05T08:36:55.079Z,25.70
2018-11-05T08:39:25.024Z,26.33
2018-11-05T08:41:55.417Z,24.97
2018-11-05T08:44:25.689Z,25.20
2018-11-05T08:46:55.901Z,24.97
2018-11-05T08:49:27.127Z,23.80
2018-11-05T08:51:57.538Z,26.17
2018-11-05T08:54:28.359Z,23.60
2018-11-05T08:56:58.567Z,23.50
2018-11-05T08:59:30.977Z,23.93
2018-11-05T09:02:01.119Z,26.50
2018-11-05T09:04:31.396Z,26.27
2018-11-05T09:07:01.477Z,22.87
2018-11-05T09:09:33.480Z,24.03
2018-11-05T09:12:03.765Z,22.67
2018-11-05T09:14:33.741Z,22.83
2018-11-05T09:17:04.279Z,24.17
2018-11-05T09:19:34.603Z,22.90
2018-11-05T09:22:07.213Z,21.33
2018-11-05T09:24:37.361Z,22.83
2018-11-05T09:27:07.504Z,23.67
2018-11-05T09:29:40.033Z,23.70
2018-11-05T09:32:10.939Z,24.50
2018-11-05T09:34:41.286Z,29.63
2018-11-05T09:37:12.290Z,23.20
2018-11-05T09:39:42.267Z,20.87
2018-11-05T09:42:12.980Z,18.83
2018-11-05T09:44:42.992Z,21.43
2018-11-05T09:47:13.708Z,18.13
2018-11-05T09:49:43.751Z,24.67
2018-11-05T09:52:14.685Z,21.23
2018-11-05T09:54:44.709Z,20.90
2018-11-05T09:57:20.069Z,17.27
2018-11-05T09:59:50.373Z,18.73
2018-11-05T10:02:23.051Z,19.07
2018-11-05T10:04:54.401Z,19.20
2018-11-05T10:07:24.230Z,17.57
2018-11-05T10:09:55.615Z,18.90
2018-11-05T10:12:25.579Z,20.43
2018-11-05T10:14:56.466Z,20.63
2018-11-05T10:17:26.303Z,19.50
2018-11-05T10:19:56.576Z,16.73
2018-11-05T10:22:27.783Z,20.17
2018-11-05T10:25:00.206Z,19.73
2018-11-05T10:27:32.257Z,19.07
2018-11-05T10:30:03.221Z,20.53
2018-11-05T10:32:34.965Z,20.87
2018-11-05T10:35:16.094Z,22.30
2018-11-05T10:37:48.069Z,19.07
2018-11-05T10:40:20.680Z,18.37
2018-11-05T10:42:52.728Z,18.87
2018-11-05T10:45:24.862Z,20.53
2018-11-05T10:47:56.325Z,19.73
2018-11-05T10:50:28.971Z,18.23
2018-11-05T10:52:59.787Z,23.00
2018-11-05T10:55:31.093Z,19.63
2018-11-05T10:58:05.006Z,24.67
2018-11-05T11:00:41.436Z,17.60
2018-11-05T11:03:15.285Z,19.63
2018-11-05T11:05:46.192Z,20.07
2018-11-05T11:08:17.199Z,21.03
2018-11-05T11:10:49.205Z,18.80
2018-11-05T11:13:20.070Z,18.67
2018-11-05T11:15:51.930Z,18.43
2018-11-05T11:18:23.316Z,18.83
2018-11-05T11:20:53.763Z,16.70
2018-11-05T11:23:24.701Z,21.07
2018-11-05T11:25:56.426Z,19.57
2018-11-05T11:28:27.047Z,19.60
2018-11-05T11:30:58.613Z,17.60
2018-11-05T11:33:29.497Z,20.00
2018-11-05T11:36:00.649Z,19.73
2018-11-05T11:38:31.594Z,20.77
2018-11-05T11:41:03.033Z,20.00
2018-11-05T11:43:33.939Z,19.43
2018-11-05T11:46:04.991Z,20.30
2018-11-05T11:48:35.585Z,19.93
2018-11-05T11:51:08.056Z,19.93
2018-11-05T11:53:38.832Z,14.90
2018-11-05T11:56:10.312Z,17.80
2018-11-05T11:58:44.857Z,19.63
2018-11-05T12:01:16.620Z,16.23
2018-11-05T12:03:48.328Z,19.23
2018-11-05T12:06:20.811Z,16.87
2018-11-05T12:08:52.278Z,17.20
2018-11-05T12:11:23.424Z,20.03
2018-11-05T12:13:54.002Z,18.83
2018-11-05T12:16:25.320Z,15.27
2018-11-05T12:18:56.037Z,20.30
2018-11-05T12:21:27.164Z,18.77
2018-11-05T12:23:58.132Z,17.40
2018-11-05T12:26:29.551Z,15.20
2018-11-05T12:29:00.462Z,18.97
2018-11-05T12:31:31.681Z,15.83
2018-11-05T12:34:03.910Z,16.17
2018-11-05T12:36:35.568Z,17.00
2018-11-05T12:39:10.209Z,15.77
2018-11-05T12:41:42.804Z,18.23
2018-11-05T12:44:13.851Z,15.63
2018-11-05T12:46:45.725Z,21.47
2018-11-05T12:49:16.663Z,16.77
2018-11-05T12:51:47.685Z,18.93
2018-11-05T12:54:19.168Z,14.07
2018-11-05T12:56:51.382Z,12.67
2018-11-05T12:59:22.987Z,16.17
2018-11-05T13:01:56.962Z,14.70
2018-11-05T13:04:28.157Z,15.07
2018-11-05T13:06:59.475Z,12.50
2018-11-05T13:09:31.071Z,18.73
2018-11-05T13:12:02.783Z,15.23
2018-11-05T13:14:35.116Z,13.13
2018-11-05T13:17:06.397Z,13.43
2018-11-05T13:19:37.713Z,13.77
2018-11-05T13:22:09.439Z,17.83
2018-11-05T13:24:40.122Z,13.73
2018-11-05T13:27:11.882Z,16.90
2018-11-05T13:29:43.064Z,15.23
2018-11-05T13:32:14.162Z,17.77
2018-11-05T13:34:45.251Z,15.07
2018-11-05T13:37:16.487Z,15.00
2018-11-05T13:39:47.849Z,15.80
2018-11-05T13:42:21.595Z,16.60
2018-11-05T13:44:52.925Z,14.10
2018-11-05T13:47:26.724Z,15.73
2018-11-05T13:49:58.275Z,15.63
2018-11-05T13:52:30.446Z,15.20
2018-11-05T13:55:02.402Z,17.60
2018-11-05T13:57:34.032Z,16.63
2018-11-05T14:00:12.421Z,16.37
2018-11-05T14:02:43.915Z,14.73
2018-11-05T14:05:15.518Z,14.00
2018-11-05T14:07:46.579Z,17.57
2018-11-05T14:10:20.365Z,13.73
2018-11-05T14:12:52.388Z,19.63
2018-11-05T14:15:23.601Z,16.00
2018-11-05T14:17:55.105Z,17.10
2018-11-05T14:20:27.780Z,15.57
2018-11-05T14:22:59.520Z,14.23
2018-11-05T14:25:31.516Z,16.83
2018-11-05T14:28:03.476Z,18.00
2018-11-05T14:30:34.591Z,15.03
2018-11-05T14:33:06.545Z,15.70
2018-11-05T14:35:38.170Z,15.73
2018-11-05T14:38:09.516Z,13.73
2018-11-05T14:40:42.097Z,15.57
2018-11-05T14:43:13.830Z,13.53
2018-11-05T14:45:44.980Z,14.90
2018-11-05T14:48:16.499Z,15.17
2018-11-05T14:50:49.119Z,14.77
2018-11-05T14:53:19.800Z,15.70
2018-11-05T14:55:50.363Z,20.63
2018-11-05T14:58:24.611Z,20.03
2018-11-05T15:00:56.215Z,16.07
2018-11-05T15:03:27.110Z,17.93
2018-11-05T15:05:59.169Z,17.70
2018-11-05T15:08:29.866Z,16.90
2018-11-05T15:11:00.913Z,14.13
2018-11-05T15:13:31.574Z,16.93
2018-11-05T15:16:02.208Z,16.97
2018-11-05T15:18:33.077Z,20.20
2018-11-05T15:21:03.906Z,15.57
2018-11-05T15:23:34.523Z,18.53
2018-11-05T15:26:05.520Z,17.07
2018-11-05T15:28:36.800Z,18.40
2018-11-05T15:31:08.175Z,18.30
2018-11-05T15:33:38.834Z,20.93
2018-11-05T15:36:16.285Z,18.77
2018-11-05T15:38:47.426Z,18.13
2018-11-05T15:41:17.703Z,19.03
2018-11-05T15:43:50.824Z,18.77
2018-11-05T15:46:21.228Z,21.67
2018-11-05T15:48:51.776Z,16.27
2018-11-05T15:51:22.264Z,23.77
2018-11-05T15:53:53.231Z,19.50
2018-11-05T15:56:27.972Z,20.63
2018-11-05T15:58:58.793Z,15.33
2018-11-05T16:01:29.364Z,18.67
2018-11-05T16:04:03.197Z,20.57
2018-11-05T16:06:34.132Z,21.60
2018-11-05T16:09:05.091Z,18.30
2018-11-05T16:11:36.203Z,18.30
2018-11-05T16:14:07.447Z,20.90
2018-11-05T16:16:38.465Z,22.37
2018-11-05T16:19:11.434Z,22.47
2018-11-05T16:22:03.513Z,23.30
2018-11-05T16:24:33.790Z,20.53
2018-11-05T16:27:05.110Z,21.83
2018-11-05T16:29:35.813Z,24.17
2018-11-05T16:32:06.622Z,21.17
2018-11-05T16:34:37.734Z,24.53
2018-11-05T16:37:09.184Z,24.13
2018-11-05T16:39:39.903Z,24.00
2018-11-05T16:42:11.454Z,23.37
2018-11-05T16:44:42.906Z,21.43
2018-11-05T16:47:13.565Z,23.20
2018-11-05T16:49:44.343Z,22.90
2018-11-05T16:52:14.916Z,23.57
2018-11-05T16:54:45.866Z,22.33
2018-11-05T16:57:17.437Z,25.03
2018-11-05T16:59:49.795Z,22.57
2018-11-05T17:02:20.833Z,23.13
2018-11-05T17:04:52.223Z,24.20
2018-11-05T17:07:23.201Z,23.30
2018-11-05T17:09:53.716Z,26.37
2018-11-05T17:12:24.602Z,22.20
2018-11-05T17:14:55.652Z,23.63
2018-11-05T17:17:27.179Z,24.80
2018-11-05T17:19:58.171Z,24.20
2018-11-05T17:22:28.804Z,28.13
2018-11-05T17:24:59.590Z,24.40
2018-11-05T17:27:30.639Z,28.57
2018-11-05T17:30:02.151Z,28.27
2018-11-05T17:32:33.201Z,26.93
2018-11-05T17:35:03.805Z,25.07
2018-11-05T17:37:34.777Z,27.47
2018-11-05T17:40:06.558Z,36.07
2018-11-05T17:42:37.332Z,23.77
2018-11-05T17:45:09.937Z,25.27
2018-11-05T17:47:41.254Z,29.50
2018-11-05T17:50:14.078Z,31.70
2018-11-05T17:52:45.116Z,31.13
2018-11-05T17:55:16.502Z,32.07
2018-11-05T17:57:48.084Z,29.53
2018-11-05T18:00:22.523Z,31.03
2018-11-05T18:02:53.494Z,26.23
2018-11-05T18:05:24.127Z,32.47
2018-11-05T18:07:56.400Z,30.50
2018-11-05T18:10:28.518Z,31.47
2018-11-05T18:12:59.646Z,33.70
2018-11-05T18:15:31.300Z,32.40
2018-11-05T18:18:02.749Z,30.77
2018-11-05T18:20:33.382Z,29.93
2018-11-05T18:23:04.453Z,28.70
2018-11-05T18:25:35.394Z,28.40
2018-11-05T18:28:06.752Z,28.87
2018-11-05T18:30:37.385Z,33.60
2018-11-05T18:33:08.082Z,28.30
2018-11-05T18:35:38.868Z,29.17
2018-11-05T18:38:35.759Z,29.47
2018-11-05T18:41:06.843Z,26.23
2018-11-05T18:43:37.305Z,28.97
2018-11-05T18:46:08.759Z,27.33
2018-11-05T18:48:39.461Z,29.10
2018-11-05T18:51:11.675Z,27.80
2018-11-05T18:53:52.278Z,26.97
2018-11-05T18:56:24.482Z,35.27
2018-11-05T18:58:54.935Z,30.20
2018-11-05T19:01:25.317Z,34.43
2018-11-05T19:03:57.967Z,32.30
2018-11-05T19:07:33.435Z,32.83
2018-11-05T19:10:05.342Z,31.63
2018-11-05T19:12:38.406Z,30.73
2018-11-05T19:15:12.879Z,33.63
2018-11-05T19:17:44.551Z,30.97
2018-11-05T19:20:16.725Z,30.47
2018-11-05T19:22:47.713Z,29.83
2018-11-05T19:25:19.311Z,35.23
2018-11-05T19:27:50.330Z,30.77
2018-11-05T19:30:23.737Z,38.00
2018-11-05T19:32:54.318Z,33.70
2018-11-05T19:35:25.333Z,34.10
2018-11-05T19:38:02.947Z,34.10
2018-11-05T19:40:33.506Z,34.93
2018-11-05T19:43:05.298Z,32.63
2018-11-05T19:45:35.534Z,35.20
2018-11-05T19:48:06.326Z,31.67
2018-11-05T19:50:37.607Z,34.10
2018-11-05T19:53:09.364Z,31.90
2018-11-05T19:55:39.690Z,33.63
2018-11-05T19:58:10.971Z,33.20
2018-11-05T20:00:43.262Z,35.77
2018-11-05T20:03:14.239Z,34.17
2018-11-05T20:05:44.988Z,32.20
2018-11-05T20:08:15.205Z,29.33
2018-11-05T20:10:45.174Z,33.27
2018-11-05T20:13:15.335Z,32.53
2018-11-05T20:15:45.912Z,31.00
2018-11-05T20:18:16.099Z,30.83
2018-11-05T20:20:46.780Z,31.93
2018-11-05T20:23:17.304Z,36.33
2018-11-05T20:25:48.267Z,30.90
2018-11-05T20:28:19.129Z,33.20
2018-11-05T20:30:49.350Z,33.07
2018-11-05T20:33:20.071Z,36.90
2018-11-05T20:35:50.892Z,31.13
2018-11-05T20:38:21.464Z,32.00
2018-11-05T20:40:52.752Z,33.93
2018-11-05T20:43:22.993Z,32.23
2018-11-05T20:45:53.638Z,35.97
2018-11-05T20:48:23.864Z,31.27
2018-11-05T20:50:55.499Z,34.33
2018-11-05T20:53:27.659Z,36.30
2018-11-05T20:55:58.299Z,34.97
2018-11-05T20:58:30.060Z,32.73
2018-11-05T21:01:01.138Z,33.33
2018-11-05T21:03:31.679Z,34.73
2018-11-05T21:06:02.976Z,38.47
2018-11-05T21:08:34.134Z,39.07
2018-11-05T21:11:07.092Z,37.33
2018-11-05T21:13:37.646Z,38.63
2018-11-05T21:16:09.376Z,33.47
2018-11-05T21:18:40.054Z,36.60
2018-11-05T21:21:11.947Z,38.07
2018-11-05T21:23:43.333Z,35.40
2018-11-05T21:26:14.485Z,33.43
2018-11-05T21:28:45.344Z,32.13
2018-11-05T21:31:16.098Z,34.70
2018-11-05T21:33:47.099Z,32.53
2018-11-05T21:36:17.804Z,33.13
2018-11-05T21:38:48.579Z,31.60
2018-11-05T21:41:19.960Z,34.83
2018-11-05T21:43:50.634Z,33.27
2018-11-05T21:46:21.116Z,30.87
2018-11-05T21:48:52.352Z,33.20
2018-11-05T21:51:23.092Z,33.40
2018-11-05T21:53:54.526Z,31.07
2018-11-05T21:56:25.235Z,31.90
2018-11-05T21:59:00.741Z,32.93
2018-11-05T22:01:32.746Z,33.20
2018-11-05T22:04:03.891Z,34.53
2018-11-05T22:06:35.201Z,35.17
2018-11-05T22:09:09.483Z,37.47
2018-11-05T22:11:40.068Z,34.03
2018-11-05T22:14:10.992Z,31.30
2018-11-05T22:16:42.263Z,33.53
2018-11-05T22:19:13.081Z,30.87
2018-11-05T22:21:43.807Z,34.30
2018-11-05T22:24:14.896Z,29.93
2018-11-05T22:26:45.110Z,30.30
2018-11-05T22:29:15.827Z,30.27
2018-11-05T22:31:46.895Z,31.80
2018-11-05T22:34:17.915Z,33.73
2018-11-05T22:36:48.331Z,29.40
2018-11-05T22:39:19.562Z,29.53
2018-11-05T22:41:50.140Z,31.23
2018-11-05T22:44:21.583Z,28.27
2018-11-05T22:46:52.160Z,30.23
2018-11-05T22:49:22.411Z,31.20
2018-11-05T22:51:53.246Z,34.77
2018-11-05T22:54:25.214Z,32.37
2018-11-05T22:56:56.155Z,31.87
2018-11-05T22:59:26.757Z,31.67
2018-11-05T23:01:56.973Z,31.30
2018-11-05T23:04:27.536Z,31.20
2018-11-05T23:06:58.648Z,27.90
2018-11-05T23:09:28.879Z,29.47
2018-11-05T23:11:59.761Z,35.07
2018-11-05T23:14:30.160Z,34.13
2018-11-05T23:17:00.617Z,31.43
2018-11-05T23:19:30.795Z,30.57
2018-11-05T23:22:01.514Z,32.83
2018-11-05T23:24:32.523Z,31.60
2018-11-05T23:27:04.049Z,30.67
2018-11-05T23:29:35.542Z,29.43
2018-11-05T23:32:06.512Z,30.27
2018-11-05T23:34:37.729Z,32.27
2018-11-05T23:37:09.081Z,28.70
2018-11-05T23:39:40.589Z,32.97
2018-11-05T23:42:11.855Z,31.63
2018-11-05T23:44:43.937Z,33.27
2018-11-05T23:47:15.329Z,33.87
2018-11-05T23:49:46.564Z,31.93
2018-11-05T23:52:17.944Z,34.93
2018-11-05T23:54:49.510Z,32.43
2018-11-05T23:57:21.487Z,35.23
2018-11-05T23:59:52.942Z,36.87
